Kezdőlap
METAR-TAF:

METAR-TAF

Repülőterek :

Nuuk repülőtér

Nuuk, Grönland

földrajzi szélesség: 64-10N, földrajzi hosszúság: 051-45W, magasság: 80 m

Jelenlegi meteorológiai megfigyelések

A jelentés 1 órával és 3 perccel ezelõtt készült, 05:50 UTC
Déli szél 6 kt
Hőmérséklet 5°C
Páratartalom 93%
Légköri nyomás 1020 hPa
Látótávolság 10 km, vagy több

METAR: BGGH 160550Z AUTO 19006KT 9999NDV NCD 05/04 Q1020

Idő: 04:53 (06:53 UTC)

Előrejelzés

A jelentés 10 órával és 45 perccel ezelõtt készült, 20:08 UTC
Az előrejelzés 15-én 21 óra UTC és 16-én 01 óra UTC között érvényes
Észak-északkeleti szél 10 kt
Látótávolság 10 km, vagy több
Kevés felhő 20000 lábon

TAF: BGGH 152008Z 1521/1601 02010KT 9999 FEW200

Meteorológiai megfigyelések és előrejelzések több, mint 4000 repülőtéren (METAR és TAF jelentéseket).

A térképen piros és sárga pontok jelzik az elérhető meteorológiai állomásokat.

Mozgassa az egeret a pont fölött, hogy megjelenjen az állomás neve.

Azután kattintson az időjárási megfigyelések és előrejelzések megtekintéséhez.

A térkép megváltoztatása: kattintson a fekete keresztel jelölt zöld gombra ráközelítéshez, a vonallal jelölt zöld gombra távolításhoz, vagy a zöld nyilakra a szomszédos térképek eléréséhez.


METAR-TAF: